createdAt,value
2018-12-27T00:00:15.717Z,32.88
2018-12-27T00:02:46.396Z,30.65
2018-12-27T00:05:15.079Z,29.50
2018-12-27T00:07:43.762Z,30.00
2018-12-27T00:10:12.468Z,29.15
2018-12-27T00:12:41.256Z,32.15
2018-12-27T00:15:09.569Z,37.10
2018-12-27T00:17:57.519Z,33.50
2018-12-27T00:20:26.181Z,23.30
2018-12-27T00:22:54.847Z,28.62
2018-12-27T00:25:23.975Z,30.05
2018-12-27T00:27:52.636Z,36.35
2018-12-27T00:30:21.336Z,30.57
2018-12-27T00:32:50.163Z,33.45
2018-12-27T00:35:19.222Z,28.30
2018-12-27T00:37:47.917Z,32.08
2018-12-27T00:40:16.599Z,25.57
2018-12-27T00:42:45.293Z,25.25
2018-12-27T00:45:14.445Z,31.57
2018-12-27T00:47:43.516Z,35.78
2018-12-27T00:50:12.597Z,29.23
2018-12-27T00:52:40.860Z,29.45
2018-12-27T00:55:09.867Z,30.77
2018-12-27T00:57:38.887Z,29.45
2018-12-27T01:00:08.348Z,23.20
2018-12-27T01:02:37.069Z,28.07
2018-12-27T01:05:06.280Z,26.20
2018-12-27T01:07:34.963Z,32.50
2018-12-27T01:10:03.650Z,37.65
2018-12-27T01:12:32.332Z,26.50
2018-12-27T01:15:01.024Z,25.20
2018-12-27T01:17:29.746Z,28.60
2018-12-27T01:19:57.667Z,30.20
2018-12-27T01:22:26.391Z,24.82
2018-12-27T01:24:55.506Z,23.75
2018-12-27T01:27:24.582Z,23.07
2018-12-27T01:29:53.680Z,26.97
2018-12-27T01:32:22.894Z,22.27
2018-12-27T01:34:51.997Z,19.52
2018-12-27T01:37:21.221Z,14.90
2018-12-27T01:39:49.876Z,19.15
2018-12-27T01:42:18.992Z,19.65
2018-12-27T01:44:47.658Z,18.87
2018-12-27T01:47:15.962Z,14.38
2018-12-27T01:49:44.635Z,12.78
2018-12-27T01:52:13.944Z,18.62
2018-12-27T01:54:42.629Z,12.70
2018-12-27T01:57:11.679Z,15.13
2018-12-27T01:59:40.678Z,11.60
2018-12-27T02:02:33.956Z,13.55
2018-12-27T02:05:02.570Z,10.75
2018-12-27T02:07:31.899Z,9.13
2018-12-27T02:10:00.983Z,13.48
2018-12-27T02:12:29.284Z,15.63
2018-12-27T02:14:57.958Z,11.57
2018-12-27T02:17:26.661Z,12.18
2018-12-27T02:19:55.763Z,10.68
2018-12-27T02:22:24.043Z,9.28
2018-12-27T02:24:53.122Z,10.70
2018-12-27T02:27:22.214Z,11.20
2018-12-27T02:29:51.390Z,12.00
2018-12-27T02:32:20.007Z,12.18
2018-12-27T02:34:48.322Z,14.78
2018-12-27T02:37:16.973Z,12.50
2018-12-27T02:39:45.675Z,8.95
2018-12-27T02:42:14.877Z,13.75
2018-12-27T02:44:43.146Z,9.70
2018-12-27T02:47:12.256Z,11.03
2018-12-27T02:49:41.372Z,13.90
2018-12-27T02:52:10.457Z,10.48
2018-12-27T02:54:39.580Z,8.95
2018-12-27T02:57:08.253Z,8.83
2018-12-27T02:59:36.137Z,8.28
2018-12-27T03:02:05.224Z,8.25
2018-12-27T03:04:33.923Z,10.90
2018-12-27T03:07:03.022Z,12.80
2018-12-27T03:09:32.218Z,9.53
2018-12-27T03:12:01.407Z,10.13
2018-12-27T03:14:30.504Z,8.73
2018-12-27T03:16:58.819Z,13.00
2018-12-27T03:19:27.076Z,10.35
2018-12-27T03:21:56.175Z,6.40
2018-12-27T03:24:25.198Z,9.28
2018-12-27T03:26:53.852Z,9.20
2018-12-27T03:29:22.551Z,7.00
2018-12-27T03:32:15.920Z,10.85
2018-12-27T03:34:44.611Z,10.48
2018-12-27T03:37:13.725Z,8.05
2018-12-27T03:39:41.990Z,7.47
2018-12-27T03:42:10.790Z,8.88
2018-12-27T03:44:39.802Z,7.58
2018-12-27T03:47:09.007Z,10.78
2018-12-27T03:49:37.662Z,11.53
2018-12-27T03:52:06.771Z,13.93
2018-12-27T03:54:35.564Z,14.33
2018-12-27T03:57:04.664Z,11.55
2018-12-27T03:59:33.759Z,14.75
2018-12-27T04:02:02.859Z,18.55
2018-12-27T04:04:31.559Z,20.12
2018-12-27T04:06:59.828Z,21.02
2018-12-27T04:09:29.138Z,19.55
2018-12-27T04:11:57.838Z,20.23
2018-12-27T04:14:27.024Z,28.67
2018-12-27T04:16:55.925Z,19.60
2018-12-27T04:19:24.623Z,20.30
2018-12-27T04:21:53.295Z,25.10
2018-12-27T04:24:21.714Z,21.23
2018-12-27T04:26:50.385Z,16.25
2018-12-27T04:29:19.480Z,18.23
2018-12-27T04:31:48.884Z,13.72
2018-12-27T04:34:18.203Z,16.20
2018-12-27T04:36:47.188Z,19.00
2018-12-27T04:39:15.874Z,22.25
2018-12-27T04:41:44.678Z,16.12
2018-12-27T04:44:13.864Z,14.98
2018-12-27T04:46:43.075Z,17.02
2018-12-27T04:49:12.164Z,18.02
2018-12-27T04:51:41.262Z,17.40
2018-12-27T04:54:10.365Z,20.70
2018-12-27T04:56:39.159Z,17.82
2018-12-27T04:59:07.840Z,16.40
2018-12-27T05:01:36.951Z,16.52
2018-12-27T05:04:06.064Z,14.95
2018-12-27T05:06:34.740Z,19.02
2018-12-27T05:09:04.465Z,18.98
2018-12-27T05:11:33.559Z,11.55
2018-12-27T05:14:01.833Z,10.65
2018-12-27T05:16:30.932Z,14.45
2018-12-27T05:19:00.035Z,13.15
2018-12-27T05:21:28.713Z,9.70
2018-12-27T05:23:57.825Z,13.00
2018-12-27T05:26:26.395Z,13.95
2018-12-27T05:28:55.522Z,11.90
2018-12-27T05:31:24.213Z,11.80
2018-12-27T05:33:53.312Z,13.78
2018-12-27T05:36:21.987Z,15.08
2018-12-27T05:38:50.693Z,9.43
2018-12-27T05:41:19.062Z,11.03
2018-12-27T05:43:47.748Z,19.32
2018-12-27T05:46:16.434Z,11.08
2018-12-27T05:48:45.235Z,13.48
2018-12-27T05:51:14.437Z,14.65
2018-12-27T05:53:43.540Z,11.93
2018-12-27T05:56:12.639Z,14.73
2018-12-27T05:58:41.322Z,16.37
2018-12-27T06:01:10.035Z,14.00
2018-12-27T06:03:38.691Z,16.85
2018-12-27T06:06:07.381Z,14.05
2018-12-27T06:08:36.079Z,20.02
2018-12-27T06:11:04.765Z,20.95
2018-12-27T06:13:33.476Z,17.52
2018-12-27T06:16:02.185Z,15.50
2018-12-27T06:18:30.848Z,18.17
2018-12-27T06:20:59.942Z,15.18
2018-12-27T06:23:28.739Z,15.32
2018-12-27T06:25:57.834Z,12.10
2018-12-27T06:28:26.955Z,14.60
2018-12-27T06:30:55.199Z,14.65
2018-12-27T06:33:24.319Z,13.32
2018-12-27T06:35:53.010Z,12.55
2018-12-27T06:38:20.898Z,11.63
2018-12-27T06:40:49.973Z,10.82
2018-12-27T06:43:19.079Z,14.65
2018-12-27T06:45:48.284Z,16.00
2018-12-27T06:48:17.376Z,10.35
2018-12-27T06:50:46.169Z,13.28
2018-12-27T06:53:15.287Z,13.93
2018-12-27T06:55:44.474Z,16.00
2018-12-27T06:58:13.267Z,12.50
2018-12-27T07:00:41.957Z,15.38
2018-12-27T07:03:11.064Z,15.35
2018-12-27T07:05:40.147Z,18.07
2018-12-27T07:08:08.834Z,13.28
2018-12-27T07:10:37.543Z,14.23
2018-12-27T07:13:06.223Z,11.68
2018-12-27T07:15:34.506Z,10.85
2018-12-27T07:18:03.189Z,13.53
2018-12-27T07:20:32.311Z,9.48
2018-12-27T07:23:01.395Z,14.45
2018-12-27T07:25:29.679Z,10.98
2018-12-27T07:27:58.485Z,8.15
2018-12-27T07:30:27.257Z,12.23
2018-12-27T07:32:55.948Z,10.23
2018-12-27T07:35:25.064Z,11.53
2018-12-27T07:37:54.154Z,10.53
2018-12-27T07:40:24.005Z,7.33
2018-12-27T07:42:53.067Z,8.10
2018-12-27T07:45:22.164Z,11.57
2018-12-27T07:47:51.266Z,10.03
2018-12-27T07:50:39.184Z,9.50
2018-12-27T07:53:08.320Z,14.93
2018-12-27T07:55:37.402Z,15.07
2018-12-27T07:58:06.719Z,14.90
2018-12-27T08:00:35.810Z,15.97
2018-12-27T08:03:04.117Z,15.27
2018-12-27T08:05:33.540Z,17.73
2018-12-27T08:08:02.695Z,16.53
2018-12-27T08:10:31.796Z,18.83
2018-12-27T08:13:01.409Z,19.13
2018-12-27T08:15:30.199Z,19.97
2018-12-27T08:17:58.484Z,23.20
2018-12-27T08:20:27.584Z,15.87
2018-12-27T08:22:55.858Z,19.23
2018-12-27T08:25:24.959Z,17.10
2018-12-27T08:27:54.066Z,22.70
2018-12-27T08:30:23.255Z,18.00
2018-12-27T08:32:52.484Z,16.97
2018-12-27T08:35:21.566Z,19.63
2018-12-27T08:37:50.555Z,16.63
2018-12-27T08:40:19.670Z,18.13
2018-12-27T08:42:48.800Z,18.50
2018-12-27T08:45:18.208Z,16.13
2018-12-27T08:47:46.035Z,21.73
2018-12-27T08:50:14.335Z,23.10
2018-12-27T08:52:43.009Z,19.40
2018-12-27T08:55:11.687Z,17.40
2018-12-27T08:57:40.807Z,21.20
2018-12-27T09:00:09.571Z,18.63
2018-12-27T09:02:38.309Z,22.27
2018-12-27T09:05:07.401Z,26.43
2018-12-27T09:07:36.066Z,20.60
2018-12-27T09:10:05.497Z,19.40
2018-12-27T09:12:36.093Z,19.40
2018-12-27T09:15:04.495Z,17.50
2018-12-27T09:17:33.596Z,18.67
2018-12-27T09:20:02.811Z,26.43
2018-12-27T09:22:31.897Z,24.07
2018-12-27T09:25:00.919Z,22.00
2018-12-27T09:27:29.579Z,19.73
2018-12-27T09:29:58.683Z,23.23
2018-12-27T09:32:27.792Z,22.03
2018-12-27T09:34:56.978Z,17.40
2018-12-27T09:37:25.266Z,18.50
2018-12-27T09:39:53.950Z,18.83
2018-12-27T09:42:22.956Z,17.53
2018-12-27T09:44:52.067Z,19.00
2018-12-27T09:47:20.739Z,14.83
2018-12-27T09:49:49.836Z,21.03
2018-12-27T09:52:18.871Z,17.90
2018-12-27T09:54:47.882Z,20.07
2018-12-27T09:57:16.930Z,14.30
2018-12-27T09:59:45.208Z,14.70
2018-12-27T10:02:14.326Z,14.97
2018-12-27T10:04:43.147Z,15.20
2018-12-27T10:07:12.003Z,15.73
2018-12-27T10:09:41.122Z,12.87
2018-12-27T10:12:11.219Z,9.93
2018-12-27T10:14:39.907Z,10.43
2018-12-27T10:17:09.012Z,10.50
2018-12-27T10:19:37.610Z,11.77
2018-12-27T10:22:06.291Z,12.17
2018-12-27T10:24:35.387Z,15.17
2018-12-27T10:27:03.716Z,12.97
2018-12-27T10:29:32.769Z,9.20
2018-12-27T10:32:01.466Z,12.40
2018-12-27T10:34:30.153Z,11.40
2018-12-27T10:36:58.846Z,15.90
2018-12-27T10:39:27.217Z,17.10
2018-12-27T10:41:55.915Z,15.33
2018-12-27T10:44:24.582Z,18.20
2018-12-27T10:46:52.789Z,16.17
2018-12-27T10:49:21.475Z,26.30
2018-12-27T10:51:50.153Z,22.40
2018-12-27T10:54:19.368Z,22.03
2018-12-27T10:56:48.052Z,15.77
2018-12-27T10:59:16.751Z,20.23
2018-12-27T11:01:45.470Z,19.03
2018-12-27T11:04:14.239Z,17.60
2018-12-27T11:06:42.902Z,16.77
2018-12-27T11:09:11.599Z,19.70
2018-12-27T11:11:39.917Z,16.40
2018-12-27T11:14:07.778Z,17.07
2018-12-27T11:16:36.866Z,18.40
2018-12-27T11:19:04.746Z,19.70
2018-12-27T11:21:33.519Z,16.17
2018-12-27T11:24:02.640Z,14.70
2018-12-27T11:26:31.820Z,17.27
2018-12-27T11:29:00.919Z,18.60
2018-12-27T11:31:29.620Z,16.10
2018-12-27T11:33:58.649Z,17.57
2018-12-27T11:36:27.296Z,18.10
2018-12-27T11:38:56.413Z,16.30
2018-12-27T11:41:25.080Z,18.30
2018-12-27T11:43:54.196Z,17.57
2018-12-27T11:46:23.307Z,15.63
2018-12-27T11:48:51.722Z,16.03
2018-12-27T11:51:20.785Z,16.90
2018-12-27T11:53:49.376Z,21.70
2018-12-27T11:56:18.453Z,14.97
2018-12-27T11:58:47.568Z,17.83
2018-12-27T12:01:16.553Z,15.70
2018-12-27T12:03:45.272Z,19.13
2018-12-27T12:06:13.534Z,17.07
2018-12-27T12:08:42.232Z,19.53
2018-12-27T12:11:10.912Z,20.40
2018-12-27T12:13:39.943Z,17.00
2018-12-27T12:16:09.127Z,18.50
2018-12-27T12:18:37.806Z,17.60
2018-12-27T12:21:06.795Z,17.00
2018-12-27T12:23:35.480Z,16.87
2018-12-27T12:26:04.170Z,16.07
2018-12-27T12:28:33.268Z,20.10
2018-12-27T12:31:01.962Z,16.07
2018-12-27T12:33:30.655Z,14.90
2018-12-27T12:35:59.357Z,18.47
2018-12-27T12:38:28.659Z,16.40
2018-12-27T12:40:57.755Z,19.00
2018-12-27T12:43:26.433Z,18.60
2018-12-27T12:45:54.765Z,18.67
2018-12-27T12:48:23.547Z,18.50
2018-12-27T12:50:52.786Z,20.17
2018-12-27T12:53:21.431Z,16.87
2018-12-27T12:55:50.619Z,16.97
2018-12-27T12:58:19.700Z,16.43
2018-12-27T13:00:48.383Z,17.80
2018-12-27T13:03:16.690Z,15.97
2018-12-27T13:05:45.368Z,15.30
2018-12-27T13:08:14.470Z,17.33
2018-12-27T13:10:43.199Z,17.07
2018-12-27T13:13:11.952Z,19.37
2018-12-27T13:15:41.036Z,19.40
2018-12-27T13:18:09.333Z,17.03
2018-12-27T13:20:38.138Z,19.50
2018-12-27T13:23:07.322Z,18.77
2018-12-27T13:25:36.103Z,15.50
2018-12-27T13:28:05.217Z,17.50
2018-12-27T13:30:33.524Z,20.43
2018-12-27T13:33:02.606Z,15.47
2018-12-27T13:35:31.302Z,18.10
2018-12-27T13:37:59.976Z,16.20
2018-12-27T13:40:29.064Z,13.83
2018-12-27T13:42:58.175Z,13.53
2018-12-27T13:45:26.877Z,16.20
2018-12-27T13:47:55.237Z,18.60
2018-12-27T13:50:23.529Z,20.63
2018-12-27T13:52:52.411Z,17.50
2018-12-27T13:55:21.513Z,17.17
2018-12-27T13:57:50.720Z,13.77
2018-12-27T14:00:19.403Z,18.13
2018-12-27T14:02:48.611Z,13.93
2018-12-27T14:05:17.731Z,14.63
2018-12-27T14:07:46.858Z,13.27
2018-12-27T14:10:15.916Z,15.57
2018-12-27T14:12:44.220Z,14.10
2018-12-27T14:15:13.292Z,16.73
2018-12-27T14:17:42.330Z,22.77
2018-12-27T14:20:11.085Z,15.80
2018-12-27T14:22:40.198Z,16.50
2018-12-27T14:25:08.982Z,16.60
2018-12-27T14:27:37.772Z,15.00
2018-12-27T14:30:07.375Z,16.23
2018-12-27T14:32:36.500Z,16.80
2018-12-27T14:35:05.373Z,15.53
2018-12-27T14:37:34.159Z,16.73
2018-12-27T14:40:02.455Z,13.77
2018-12-27T14:42:31.756Z,17.07
2018-12-27T14:45:00.964Z,14.73
2018-12-27T14:47:29.737Z,16.45
2018-12-27T14:49:58.456Z,14.83
2018-12-27T14:52:27.501Z,14.77
2018-12-27T14:54:56.567Z,14.70
2018-12-27T14:57:25.313Z,12.17
2018-12-27T14:59:53.696Z,17.20
2018-12-27T15:02:22.387Z,12.40
2018-12-27T15:04:51.086Z,14.90
2018-12-27T15:07:20.179Z,15.87
2018-12-27T15:09:49.298Z,24.03
2018-12-27T15:12:17.610Z,20.05
2018-12-27T15:14:46.668Z,17.20
2018-12-27T15:17:15.628Z,20.27
2018-12-27T15:19:44.964Z,17.85
2018-12-27T15:22:14.107Z,15.72
2018-12-27T15:24:43.191Z,12.60
2018-12-27T15:27:12.284Z,16.20
2018-12-27T15:29:41.075Z,16.23
2018-12-27T15:32:09.336Z,15.20
2018-12-27T15:34:38.536Z,22.35
2018-12-27T15:37:07.660Z,16.80
2018-12-27T15:39:36.843Z,26.15
2018-12-27T15:42:05.538Z,22.62
2018-12-27T15:44:34.223Z,35.75
2018-12-27T15:47:03.225Z,28.83
2018-12-27T15:49:31.899Z,40.10
2018-12-27T15:52:00.618Z,30.50
2018-12-27T15:54:29.303Z,21.93
2018-12-27T15:56:58.749Z,22.05
2018-12-27T15:59:27.607Z,24.98
2018-12-27T16:01:56.398Z,21.68
2018-12-27T16:04:25.071Z,25.57
2018-12-27T16:06:53.797Z,22.17
2018-12-27T16:09:22.855Z,22.95
2018-12-27T16:11:51.552Z,26.95
2018-12-27T16:14:19.871Z,28.23
2018-12-27T16:16:49.078Z,21.57
2018-12-27T16:19:18.129Z,20.45
2018-12-27T16:21:46.839Z,25.10
2018-12-27T16:24:15.976Z,29.23
2018-12-27T16:27:03.548Z,27.77
2018-12-27T16:29:32.243Z,27.25
2018-12-27T16:32:01.575Z,23.00
2018-12-27T16:34:29.462Z,24.00
2018-12-27T16:36:58.120Z,21.90
2018-12-27T16:39:26.392Z,25.45
2018-12-27T16:41:55.490Z,16.52
2018-12-27T16:44:24.191Z,22.77
2018-12-27T16:46:53.304Z,22.65
2018-12-27T16:49:22.386Z,23.60
2018-12-27T16:51:51.071Z,23.07
2018-12-27T16:54:20.185Z,22.90
2018-12-27T16:56:49.241Z,23.52
2018-12-27T16:59:17.994Z,22.90
2018-12-27T17:01:47.075Z,23.47
2018-12-27T17:04:16.186Z,23.57
2018-12-27T17:06:44.853Z,25.37
2018-12-27T17:09:13.530Z,23.62
2018-12-27T17:11:42.223Z,42.20
2018-12-27T17:14:10.541Z,21.42
2018-12-27T17:16:38.829Z,24.55
2018-12-27T17:19:07.496Z,27.98
2018-12-27T17:21:36.608Z,29.10
2018-12-27T17:24:05.801Z,23.47
2018-12-27T17:26:35.016Z,26.40
2018-12-27T17:29:04.085Z,22.30
2018-12-27T17:31:32.781Z,23.87
2018-12-27T17:34:02.005Z,21.77
2018-12-27T17:36:30.807Z,35.05
2018-12-27T17:39:00.904Z,28.02
2018-12-27T17:41:30.004Z,32.20
2018-12-27T17:43:58.280Z,32.63
2018-12-27T17:46:27.063Z,33.75
2018-12-27T17:48:56.202Z,38.38
2018-12-27T17:51:25.479Z,30.25
2018-12-27T17:53:54.584Z,30.88
2018-12-27T17:56:23.275Z,27.58
2018-12-27T17:58:52.363Z,31.33
2018-12-27T18:01:21.473Z,27.52
2018-12-27T18:03:50.268Z,30.48
2018-12-27T18:06:19.347Z,31.02
2018-12-27T18:08:48.751Z,32.67
2018-12-27T18:11:17.856Z,36.93
2018-12-27T18:13:46.553Z,28.35
2018-12-27T18:16:15.346Z,26.52
2018-12-27T18:18:43.618Z,23.10
2018-12-27T18:21:12.304Z,27.42
2018-12-27T18:23:41.441Z,28.45
2018-12-27T18:26:10.509Z,28.57
2018-12-27T18:28:39.715Z,29.00
2018-12-27T18:31:08.815Z,28.95
2018-12-27T18:33:37.627Z,25.10
2018-12-27T18:36:06.423Z,25.57
2018-12-27T18:38:35.631Z,28.00
2018-12-27T18:41:04.383Z,27.60
2018-12-27T18:43:33.080Z,26.75
2018-12-27T18:46:02.181Z,25.70
2018-12-27T18:48:30.971Z,28.17
2018-12-27T18:50:59.669Z,27.95
2018-12-27T18:53:28.491Z,25.62
2018-12-27T18:55:57.172Z,30.55
2018-12-27T18:58:25.935Z,33.35
2018-12-27T19:00:54.933Z,32.15
2018-12-27T19:03:24.040Z,30.62
2018-12-27T19:05:52.733Z,27.60
2018-12-27T19:08:21.828Z,31.55
2018-12-27T19:11:08.331Z,25.48
2018-12-27T19:13:37.167Z,25.85
2018-12-27T19:16:05.811Z,33.55
2018-12-27T19:18:42.333Z,30.02
2018-12-27T19:21:15.887Z,30.27
2018-12-27T19:23:44.644Z,31.80
2018-12-27T19:26:13.150Z,38.15
2018-12-27T19:28:42.479Z,32.03
2018-12-27T19:31:10.851Z,27.45
2018-12-27T19:33:39.651Z,35.78
2018-12-27T19:36:08.868Z,29.67
2018-12-27T19:38:38.076Z,31.97
2018-12-27T19:41:05.994Z,32.80
2018-12-27T19:43:35.252Z,31.97
2018-12-27T19:46:04.454Z,30.75
2018-12-27T19:48:33.121Z,30.97
2018-12-27T19:51:01.856Z,30.57
2018-12-27T19:53:30.915Z,29.25
2018-12-27T19:56:00.014Z,37.50
2018-12-27T19:58:29.108Z,37.40
2018-12-27T20:00:57.481Z,31.35
2018-12-27T20:03:26.587Z,33.10
2018-12-27T20:05:55.687Z,30.90
2018-12-27T20:08:24.375Z,28.67
2018-12-27T20:10:53.072Z,33.30
2018-12-27T20:13:21.768Z,31.97
2018-12-27T20:15:50.489Z,28.75
2018-12-27T20:18:19.289Z,34.55
2018-12-27T20:20:48.448Z,33.15
2018-12-27T20:23:17.569Z,36.55
2018-12-27T20:25:46.261Z,43.02
2018-12-27T20:28:15.328Z,34.18
2018-12-27T20:30:44.466Z,35.48
2018-12-27T20:33:13.547Z,26.17
2018-12-27T20:35:42.242Z,35.45
2018-12-27T20:38:11.547Z,31.80
2018-12-27T20:40:40.625Z,34.00
2018-12-27T20:43:09.742Z,30.60
2018-12-27T20:45:49.979Z,35.90
2018-12-27T20:48:18.852Z,27.22
2018-12-27T20:50:47.186Z,35.10
2018-12-27T20:53:15.850Z,30.72
2018-12-27T20:55:45.081Z,28.52
2018-12-27T20:58:13.318Z,43.68
2018-12-27T21:00:42.040Z,59.25
2018-12-27T21:03:11.154Z,47.17
2018-12-27T21:05:39.946Z,43.95
2018-12-27T21:08:14.058Z,54.73
2018-12-27T21:10:39.157Z,44.45
2018-12-27T21:13:07.815Z,35.20
2018-12-27T21:15:36.546Z,38.05
2018-12-27T21:18:05.360Z,30.52
2018-12-27T21:20:34.028Z,35.95
2018-12-27T21:23:03.315Z,31.33
2018-12-27T21:25:32.426Z,27.85
2018-12-27T21:28:01.620Z,27.65
2018-12-27T21:30:30.300Z,30.97
2018-12-27T21:33:00.440Z,32.85
2018-12-27T21:35:29.543Z,30.05
2018-12-27T21:37:58.336Z,27.40
2018-12-27T21:40:26.647Z,35.45
2018-12-27T21:42:55.413Z,30.30
2018-12-27T21:45:24.487Z,25.20
2018-12-27T21:47:52.822Z,31.12
2018-12-27T21:50:21.896Z,28.17
2018-12-27T21:52:50.988Z,24.40
2018-12-27T21:55:20.113Z,23.87
2018-12-27T21:57:48.754Z,25.48
2018-12-27T22:00:17.437Z,26.40
2018-12-27T22:02:46.560Z,22.65
2018-12-27T22:05:14.827Z,20.30
2018-12-27T22:07:43.523Z,19.95
2018-12-27T22:10:12.571Z,21.80
2018-12-27T22:12:41.714Z,21.75
2018-12-27T22:15:10.819Z,19.15
2018-12-27T22:17:39.867Z,19.92
2018-12-27T22:20:08.603Z,17.92
2018-12-27T22:22:37.700Z,17.00
2018-12-27T22:25:06.400Z,21.33
2018-12-27T22:27:35.619Z,20.05
2018-12-27T22:30:04.695Z,22.90
2018-12-27T22:32:33.425Z,18.80
2018-12-27T22:35:02.583Z,21.57
2018-12-27T22:37:31.303Z,21.42
2018-12-27T22:40:00.909Z,17.65
2018-12-27T22:42:29.914Z,20.02
2018-12-27T22:44:58.984Z,16.42
2018-12-27T22:47:27.672Z,20.08
2018-12-27T22:49:56.456Z,20.70
2018-12-27T22:52:25.180Z,14.53
2018-12-27T22:54:54.259Z,19.35
2018-12-27T22:57:23.421Z,15.30
2018-12-27T22:59:52.152Z,16.85
2018-12-27T23:02:20.469Z,16.70
2018-12-27T23:04:49.539Z,16.73
2018-12-27T23:07:18.220Z,18.87
2018-12-27T23:09:46.543Z,19.10
2018-12-27T23:12:15.291Z,18.12
2018-12-27T23:14:43.977Z,16.57
2018-12-27T23:17:13.083Z,17.27
2018-12-27T23:19:42.199Z,12.93
2018-12-27T23:22:10.870Z,19.90
2018-12-27T23:24:39.967Z,13.93
2018-12-27T23:27:08.711Z,13.35
2018-12-27T23:29:37.758Z,13.55
2018-12-27T23:32:06.049Z,14.00
2018-12-27T23:34:36.158Z,15.88
2018-12-27T23:37:04.454Z,15.25
2018-12-27T23:39:33.136Z,14.20
2018-12-27T23:42:00.985Z,16.30
2018-12-27T23:44:30.017Z,16.75
2018-12-27T23:46:58.693Z,15.40
2018-12-27T23:49:27.366Z,17.27
2018-12-27T23:51:56.484Z,14.28
2018-12-27T23:54:25.591Z,16.55
2018-12-27T23:56:54.271Z,12.82
2018-12-27T23:59:23.368Z,12.95
